sensor_id;sensor_type;location;lat;lon;timestamp;pressure;altitude;pressure_sealevel;temperature;humidity
37852;BME280;23691;52.486;4.650;2023-05-22T00:00:34;101672.69;;;16.00;72.09
37852;BME280;23691;52.486;4.650;2023-05-22T00:03:00;101672.88;;;15.99;72.12
37852;BME280;23691;52.486;4.650;2023-05-22T00:05:28;101674.72;;;15.98;72.30
37852;BME280;23691;52.486;4.650;2023-05-22T00:07:54;101670.16;;;15.99;72.38
37852;BME280;23691;52.486;4.650;2023-05-22T00:10:19;101669.34;;;15.98;72.30
37852;BME280;23691;52.486;4.650;2023-05-22T00:12:45;101668.50;;;15.98;72.28
37852;BME280;23691;52.486;4.650;2023-05-22T00:15:10;101660.56;;;15.96;72.66
37852;BME280;23691;52.486;4.650;2023-05-22T00:17:36;101659.75;;;15.96;72.74
37852;BME280;23691;52.486;4.650;2023-05-22T00:20:02;101660.09;;;15.93;72.66
37852;BME280;23691;52.486;4.650;2023-05-22T00:22:31;101663.16;;;15.89;73.14
37852;BME280;23691;52.486;4.650;2023-05-22T00:25:00;101672.28;;;15.88;72.98
37852;BME280;23691;52.486;4.650;2023-05-22T00:27:25;101656.44;;;15.85;73.13
37852;BME280;23691;52.486;4.650;2023-05-22T00:29:51;101655.94;;;15.82;73.02
37852;BME280;23691;52.486;4.650;2023-05-22T00:32:16;101665.25;;;15.79;73.51
37852;BME280;23691;52.486;4.650;2023-05-22T00:34:41;101656.31;;;15.79;73.60
37852;BME280;23691;52.486;4.650;2023-05-22T00:37:06;101660.97;;;15.85;73.37
37852;BME280;23691;52.486;4.650;2023-05-22T00:39:32;101669.03;;;15.93;73.39
37852;BME280;23691;52.486;4.650;2023-05-22T00:41:57;101658.03;;;15.95;73.11
37852;BME280;23691;52.486;4.650;2023-05-22T00:44:23;101663.94;;;15.98;73.11
37852;BME280;23691;52.486;4.650;2023-05-22T00:46:48;101673.69;;;15.99;73.08
37852;BME280;23691;52.486;4.650;2023-05-22T00:49:13;101665.44;;;16.01;73.02
37852;BME280;23691;52.486;4.650;2023-05-22T00:51:39;101664.22;;;16.03;73.27
37852;BME280;23691;52.486;4.650;2023-05-22T00:54:04;101663.88;;;16.06;73.11
37852;BME280;23691;52.486;4.650;2023-05-22T00:56:30;101682.22;;;16.11;73.04
37852;BME280;23691;52.486;4.650;2023-05-22T00:58:57;101675.63;;;16.14;73.17
37852;BME280;23691;52.486;4.650;2023-05-22T01:01:23;101680.84;;;16.15;73.31
37852;BME280;23691;52.486;4.650;2023-05-22T01:03:51;101661.75;;;16.17;73.03
37852;BME280;23691;52.486;4.650;2023-05-22T01:06:17;101659.63;;;16.12;73.32
37852;BME280;23691;52.486;4.650;2023-05-22T01:08:43;101645.47;;;16.10;73.51
37852;BME280;23691;52.486;4.650;2023-05-22T01:11:14;101646.28;;;16.10;73.63
37852;BME280;23691;52.486;4.650;2023-05-22T01:13:58;101653.91;;;16.07;73.78
37852;BME280;23691;52.486;4.650;2023-05-22T01:16:43;101673.47;;;16.09;73.62
37852;BME280;23691;52.486;4.650;2023-05-22T01:22:20;101647.22;;;16.03;73.75
37852;BME280;23691;52.486;4.650;2023-05-22T01:24:59;101649.38;;;16.07;73.88
37852;BME280;23691;52.486;4.650;2023-05-22T01:27:54;101644.59;;;16.09;73.44
37852;BME280;23691;52.486;4.650;2023-05-22T01:30:46;101647.31;;;16.09;73.52
37852;BME280;23691;52.486;4.650;2023-05-22T01:33:16;101630.09;;;16.10;73.44
37852;BME280;23691;52.486;4.650;2023-05-22T01:35:47;101626.56;;;16.10;73.62
37852;BME280;23691;52.486;4.650;2023-05-22T01:38:15;101625.91;;;16.08;73.41
37852;BME280;23691;52.486;4.650;2023-05-22T01:40:42;101615.94;;;16.08;73.67
37852;BME280;23691;52.486;4.650;2023-05-22T01:43:08;101600.78;;;16.07;73.71
37852;BME280;23691;52.486;4.650;2023-05-22T01:45:34;101587.63;;;16.04;73.67
37852;BME280;23691;52.486;4.650;2023-05-22T01:47:59;101584.94;;;16.04;73.65
37852;BME280;23691;52.486;4.650;2023-05-22T01:50:25;101583.44;;;16.02;73.23
37852;BME280;23691;52.486;4.650;2023-05-22T01:58:33;101574.34;;;16.03;73.61
37852;BME280;23691;52.486;4.650;2023-05-22T02:01:02;101566.41;;;16.01;73.07
37852;BME280;23691;52.486;4.650;2023-05-22T02:03:30;101556.16;;;15.97;73.54
37852;BME280;23691;52.486;4.650;2023-05-22T02:05:59;101558.03;;;15.96;73.31
37852;BME280;23691;52.486;4.650;2023-05-22T02:08:26;101566.78;;;15.98;73.49
37852;BME280;23691;52.486;4.650;2023-05-22T02:10:54;101562.38;;;15.97;73.27
37852;BME280;23691;52.486;4.650;2023-05-22T02:13:20;101570.69;;;15.96;73.59
37852;BME280;23691;52.486;4.650;2023-05-22T02:15:46;101562.75;;;15.94;73.50
37852;BME280;23691;52.486;4.650;2023-05-22T02:18:13;101573.25;;;15.89;73.63
37852;BME280;23691;52.486;4.650;2023-05-22T02:20:38;101566.75;;;15.83;73.82
37852;BME280;23691;52.486;4.650;2023-05-22T02:23:04;101555.38;;;15.73;73.79
37852;BME280;23691;52.486;4.650;2023-05-22T02:25:29;101552.34;;;15.68;74.34
37852;BME280;23691;52.486;4.650;2023-05-22T02:27:55;101547.84;;;15.60;74.36
37852;BME280;23691;52.486;4.650;2023-05-22T02:30:20;101543.28;;;15.61;74.30
37852;BME280;23691;52.486;4.650;2023-05-22T02:32:46;101545.50;;;15.57;74.64
37852;BME280;23691;52.486;4.650;2023-05-22T02:35:11;101553.78;;;15.56;74.66
37852;BME280;23691;52.486;4.650;2023-05-22T02:37:37;101536.75;;;15.55;74.68
37852;BME280;23691;52.486;4.650;2023-05-22T02:40:03;101540.00;;;15.51;75.13
37852;BME280;23691;52.486;4.650;2023-05-22T02:42:33;101537.31;;;15.51;75.05
37852;BME280;23691;52.486;4.650;2023-05-22T02:44:58;101540.84;;;15.51;75.26
37852;BME280;23691;52.486;4.650;2023-05-22T02:47:24;101534.47;;;15.44;75.56
37852;BME280;23691;52.486;4.650;2023-05-22T02:49:49;101530.09;;;15.43;75.46
37852;BME280;23691;52.486;4.650;2023-05-22T02:52:16;101526.41;;;15.44;75.69
37852;BME280;23691;52.486;4.650;2023-05-22T02:54:41;101529.25;;;15.42;75.76
37852;BME280;23691;52.486;4.650;2023-05-22T02:57:06;101523.50;;;15.45;75.97
37852;BME280;23691;52.486;4.650;2023-05-22T02:59:32;101521.84;;;15.44;76.01
37852;BME280;23691;52.486;4.650;2023-05-22T03:01:57;101528.06;;;15.45;76.35
37852;BME280;23691;52.486;4.650;2023-05-22T03:04:22;101522.50;;;15.46;76.52
37852;BME280;23691;52.486;4.650;2023-05-22T03:06:48;101520.81;;;15.45;76.51
37852;BME280;23691;52.486;4.650;2023-05-22T03:09:14;101522.31;;;15.48;76.59
37852;BME280;23691;52.486;4.650;2023-05-22T03:11:40;101518.22;;;15.52;76.35
37852;BME280;23691;52.486;4.650;2023-05-22T03:14:07;101520.94;;;15.52;76.30
37852;BME280;23691;52.486;4.650;2023-05-22T03:16:32;101526.31;;;15.52;76.70
37852;BME280;23691;52.486;4.650;2023-05-22T03:19:12;101515.25;;;15.47;76.83
37852;BME280;23691;52.486;4.650;2023-05-22T03:21:38;101518.97;;;15.46;76.86
37852;BME280;23691;52.486;4.650;2023-05-22T03:24:04;101515.25;;;15.47;76.94
37852;BME280;23691;52.486;4.650;2023-05-22T03:26:30;101521.28;;;15.49;76.75
37852;BME280;23691;52.486;4.650;2023-05-22T03:28:55;101525.19;;;15.46;77.14
37852;BME280;23691;52.486;4.650;2023-05-22T03:31:23;101522.78;;;15.52;76.81
37852;BME280;23691;52.486;4.650;2023-05-22T03:33:49;101519.06;;;15.53;76.82
37852;BME280;23691;52.486;4.650;2023-05-22T03:36:15;101521.75;;;15.53;76.60
37852;BME280;23691;52.486;4.650;2023-05-22T03:38:40;101517.94;;;15.47;77.04
37852;BME280;23691;52.486;4.650;2023-05-22T03:41:06;101514.13;;;15.41;77.28
37852;BME280;23691;52.486;4.650;2023-05-22T03:43:32;101514.78;;;15.43;77.08
37852;BME280;23691;52.486;4.650;2023-05-22T03:45:57;101511.41;;;15.41;77.01
37852;BME280;23691;52.486;4.650;2023-05-22T03:48:23;101509.56;;;15.42;77.04
37852;BME280;23691;52.486;4.650;2023-05-22T03:50:49;101514.28;;;15.40;77.29
37852;BME280;23691;52.486;4.650;2023-05-22T03:53:15;101514.94;;;15.42;77.17
37852;BME280;23691;52.486;4.650;2023-05-22T03:55:40;101521.66;;;15.46;77.27
37852;BME280;23691;52.486;4.650;2023-05-22T03:58:06;101530.22;;;15.50;76.76
37852;BME280;23691;52.486;4.650;2023-05-22T04:00:31;101524.81;;;15.50;76.86
37852;BME280;23691;52.486;4.650;2023-05-22T04:02:57;101533.56;;;15.52;77.11
37852;BME280;23691;52.486;4.650;2023-05-22T04:05:22;101524.13;;;15.56;77.02
37852;BME280;23691;52.486;4.650;2023-05-22T04:07:48;101523.47;;;15.54;77.10
37852;BME280;23691;52.486;4.650;2023-05-22T04:10:13;101522.63;;;15.53;77.10
37852;BME280;23691;52.486;4.650;2023-05-22T04:12:39;101537.59;;;15.56;76.98
37852;BME280;23691;52.486;4.650;2023-05-22T04:15:04;101537.59;;;15.56;76.94
37852;BME280;23691;52.486;4.650;2023-05-22T04:17:31;101543.47;;;15.59;76.92
37852;BME280;23691;52.486;4.650;2023-05-22T04:19:57;101547.28;;;15.65;76.61
37852;BME280;23691;52.486;4.650;2023-05-22T04:22:23;101547.78;;;15.68;76.81
37852;BME280;23691;52.486;4.650;2023-05-22T04:24:49;101546.59;;;15.71;76.60
37852;BME280;23691;52.486;4.650;2023-05-22T04:27:14;101546.59;;;15.71;76.50
37852;BME280;23691;52.486;4.650;2023-05-22T04:29:40;101546.78;;;15.70;76.78
37852;BME280;23691;52.486;4.650;2023-05-22T04:32:06;101557.69;;;15.76;76.81
37852;BME280;23691;52.486;4.650;2023-05-22T04:34:35;101554.75;;;15.86;76.31
37852;BME280;23691;52.486;4.650;2023-05-22T04:37:05;101562.31;;;15.91;76.25
37852;BME280;23691;52.486;4.650;2023-05-22T04:39:30;101563.59;;;15.95;75.95
37852;BME280;23691;52.486;4.650;2023-05-22T04:41:56;101570.97;;;16.01;75.85
37852;BME280;23691;52.486;4.650;2023-05-22T04:44:22;101564.00;;;16.06;75.53
37852;BME280;23691;52.486;4.650;2023-05-22T04:46:48;101559.91;;;16.10;75.35
37852;BME280;23691;52.486;4.650;2023-05-22T04:49:14;101557.69;;;16.14;75.54
37852;BME280;23691;52.486;4.650;2023-05-22T04:51:39;101560.88;;;16.18;75.45
37852;BME280;23691;52.486;4.650;2023-05-22T04:54:05;101563.56;;;16.18;75.59
37852;BME280;23691;52.486;4.650;2023-05-22T04:56:30;101565.16;;;16.12;75.95
37852;BME280;23691;52.486;4.650;2023-05-22T04:58:56;101565.78;;;16.14;75.79
37852;BME280;23691;52.486;4.650;2023-05-22T05:01:21;101574.00;;;16.21;75.66
37852;BME280;23691;52.486;4.650;2023-05-22T05:03:47;101570.84;;;16.32;75.66
37852;BME280;23691;52.486;4.650;2023-05-22T05:06:13;101576.53;;;16.37;75.29
37852;BME280;23691;52.486;4.650;2023-05-22T05:08:38;101573.91;;;16.44;75.15
37852;BME280;23691;52.486;4.650;2023-05-22T05:11:03;101576.72;;;16.50;75.13
37852;BME280;23691;52.486;4.650;2023-05-22T05:13:29;101578.31;;;16.60;74.96
37852;BME280;23691;52.486;4.650;2023-05-22T05:15:57;101582.78;;;16.67;74.76
37852;BME280;23691;52.486;4.650;2023-05-22T05:18:23;101573.91;;;16.73;74.44
37852;BME280;23691;52.486;4.650;2023-05-22T05:20:50;101576.94;;;16.79;74.64
37852;BME280;23691;52.486;4.650;2023-05-22T05:23:15;101579.72;;;16.85;74.41
37852;BME280;23691;52.486;4.650;2023-05-22T05:25:41;101581.69;;;16.91;74.53
37852;BME280;23691;52.486;4.650;2023-05-22T05:28:06;101576.72;;;16.95;74.28
37852;BME280;23691;52.486;4.650;2023-05-22T05:30:39;101577.38;;;16.97;74.18
37852;BME280;23691;52.486;4.650;2023-05-22T05:33:04;101584.44;;;16.98;74.09
37852;BME280;23691;52.486;4.650;2023-05-22T05:35:30;101580.56;;;17.01;73.96
37852;BME280;23691;52.486;4.650;2023-05-22T05:37:55;101571.00;;;17.05;74.16
37852;BME280;23691;52.486;4.650;2023-05-22T05:40:20;101568.53;;;17.03;74.01
37852;BME280;23691;52.486;4.650;2023-05-22T05:42:46;101565.44;;;17.06;74.21
37852;BME280;23691;52.486;4.650;2023-05-22T05:45:12;101563.38;;;17.08;74.44
37852;BME280;23691;52.486;4.650;2023-05-22T05:47:38;101567.44;;;17.19;74.14
37852;BME280;23691;52.486;4.650;2023-05-22T05:50:05;101575.38;;;17.42;73.45
37852;BME280;23691;52.486;4.650;2023-05-22T05:52:31;101579.72;;;17.79;72.96
37852;BME280;23691;52.486;4.650;2023-05-22T05:54:58;101591.38;;;18.01;72.62
37852;BME280;23691;52.486;4.650;2023-05-22T05:57:25;101593.38;;;18.14;72.62
37852;BME280;23691;52.486;4.650;2023-05-22T05:59:50;101596.38;;;18.26;72.68
37852;BME280;23691;52.486;4.650;2023-05-22T06:02:16;101596.03;;;18.36;72.64
37852;BME280;23691;52.486;4.650;2023-05-22T06:04:41;101599.84;;;18.41;72.39
37852;BME280;23691;52.486;4.650;2023-05-22T06:07:06;101601.91;;;18.39;72.36
37852;BME280;23691;52.486;4.650;2023-05-22T06:09:32;101611.03;;;18.38;72.37
37852;BME280;23691;52.486;4.650;2023-05-22T06:11:57;101602.53;;;18.41;72.28
37852;BME280;23691;52.486;4.650;2023-05-22T06:14:22;101611.44;;;18.63;72.04
37852;BME280;23691;52.486;4.650;2023-05-22T06:16:48;101606.81;;;18.85;71.60
37852;BME280;23691;52.486;4.650;2023-05-22T06:19:13;101613.78;;;19.08;71.49
37852;BME280;23691;52.486;4.650;2023-05-22T06:21:39;101617.00;;;19.25;71.30
37852;BME280;23691;52.486;4.650;2023-05-22T06:24:04;101616.81;;;19.46;70.83
37852;BME280;23691;52.486;4.650;2023-05-22T06:26:30;101616.66;;;19.61;70.41
37852;BME280;23691;52.486;4.650;2023-05-22T06:28:55;101616.03;;;19.66;70.39
37852;BME280;23691;52.486;4.650;2023-05-22T06:31:21;101609.81;;;19.72;70.04
37852;BME280;23691;52.486;4.650;2023-05-22T06:33:46;101603.16;;;19.88;69.58
37852;BME280;23691;52.486;4.650;2023-05-22T06:36:12;101602.97;;;19.96;69.48
37852;BME280;23691;52.486;4.650;2023-05-22T06:38:38;101604.44;;;19.99;69.48
37852;BME280;23691;52.486;4.650;2023-05-22T06:41:04;101610.47;;;20.07;69.19
37852;BME280;23691;52.486;4.650;2023-05-22T06:43:30;101612.56;;;20.19;68.84
37852;BME280;23691;52.486;4.650;2023-05-22T06:45:55;101602.13;;;20.35;68.28
37852;BME280;23691;52.486;4.650;2023-05-22T06:48:20;101604.81;;;20.55;67.80
37852;BME280;23691;52.486;4.650;2023-05-22T06:50:46;101606.66;;;20.75;67.66
37852;BME280;23691;52.486;4.650;2023-05-22T06:53:11;101604.97;;;20.87;67.26
37852;BME280;23691;52.486;4.650;2023-05-22T06:55:37;101611.63;;;20.91;67.21
37852;BME280;23691;52.486;4.650;2023-05-22T06:58:02;101613.06;;;20.94;66.68
37852;BME280;23691;52.486;4.650;2023-05-22T07:00:28;101621.84;;;21.02;66.80
37852;BME280;23691;52.486;4.650;2023-05-22T07:02:54;101624.31;;;21.04;66.61
37852;BME280;23691;52.486;4.650;2023-05-22T07:05:19;101625.19;;;21.05;66.65
37852;BME280;23691;52.486;4.650;2023-05-22T07:07:44;101615.97;;;20.99;66.68
37852;BME280;23691;52.486;4.650;2023-05-22T07:10:10;101608.88;;;21.05;66.58
37852;BME280;23691;52.486;4.650;2023-05-22T07:12:36;101619.06;;;21.16;66.33
37852;BME280;23691;52.486;4.650;2023-05-22T07:15:01;101616.53;;;21.21;65.81
37852;BME280;23691;52.486;4.650;2023-05-22T07:17:26;101618.63;;;21.19;65.81
37852;BME280;23691;52.486;4.650;2023-05-22T07:19:52;101617.34;;;21.21;65.67
37852;BME280;23691;52.486;4.650;2023-05-22T07:22:17;101616.06;;;21.31;65.38
37852;BME280;23691;52.486;4.650;2023-05-22T07:24:43;101621.91;;;21.34;65.68
37852;BME280;23691;52.486;4.650;2023-05-22T07:27:08;101624.41;;;21.36;65.56
37852;BME280;23691;52.486;4.650;2023-05-22T07:29:35;101624.59;;;21.48;65.14
37852;BME280;23691;52.486;4.650;2023-05-22T07:32:00;101623.47;;;21.62;65.02
37852;BME280;23691;52.486;4.650;2023-05-22T07:34:26;101630.69;;;21.75;64.70
37852;BME280;23691;52.486;4.650;2023-05-22T07:37:09;101629.78;;;21.87;64.46
37852;BME280;23691;52.486;4.650;2023-05-22T07:39:35;101630.53;;;22.01;63.76
37852;BME280;23691;52.486;4.650;2023-05-22T07:42:00;101634.25;;;22.07;63.75
37852;BME280;23691;52.486;4.650;2023-05-22T07:44:27;101638.41;;;22.09;63.28
37852;BME280;23691;52.486;4.650;2023-05-22T07:46:52;101640.47;;;22.14;63.14
37852;BME280;23691;52.486;4.650;2023-05-22T07:49:19;101647.16;;;22.25;62.32
37852;BME280;23691;52.486;4.650;2023-05-22T07:51:46;101639.97;;;22.31;62.11
37852;BME280;23691;52.486;4.650;2023-05-22T07:54:11;101643.22;;;22.39;62.09
37852;BME280;23691;52.486;4.650;2023-05-22T07:56:40;101633.69;;;22.48;61.70
37852;BME280;23691;52.486;4.650;2023-05-22T07:59:05;101635.13;;;22.51;61.60
37852;BME280;23691;52.486;4.650;2023-05-22T08:01:31;101636.75;;;22.59;61.21
37852;BME280;23691;52.486;4.650;2023-05-22T08:03:57;101633.50;;;22.68;61.56
37852;BME280;23691;52.486;4.650;2023-05-22T08:06:22;101634.88;;;22.78;61.06
37852;BME280;23691;52.486;4.650;2023-05-22T08:08:49;101638.13;;;22.86;60.92
37852;BME280;23691;52.486;4.650;2023-05-22T08:11:14;101646.03;;;22.94;60.84
37852;BME280;23691;52.486;4.650;2023-05-22T08:13:39;101647.03;;;23.00;60.70
37852;BME280;23691;52.486;4.650;2023-05-22T08:16:05;101645.28;;;23.06;60.44
37852;BME280;23691;52.486;4.650;2023-05-22T08:18:30;101642.88;;;23.16;59.98
37852;BME280;23691;52.486;4.650;2023-05-22T08:20:56;101644.06;;;23.20;60.04
37852;BME280;23691;52.486;4.650;2023-05-22T08:23:21;101645.13;;;23.19;59.88
37852;BME280;23691;52.486;4.650;2023-05-22T08:25:47;101637.31;;;23.23;59.86
37852;BME280;23691;52.486;4.650;2023-05-22T08:28:14;101640.63;;;23.25;59.47
37852;BME280;23691;52.486;4.650;2023-05-22T08:30:39;101638.53;;;23.27;59.42
37852;BME280;23691;52.486;4.650;2023-05-22T08:33:04;101638.06;;;23.30;59.21
37852;BME280;23691;52.486;4.650;2023-05-22T08:35:30;101637.72;;;23.38;59.36
37852;BME280;23691;52.486;4.650;2023-05-22T08:37:55;101640.28;;;23.51;58.54
37852;BME280;23691;52.486;4.650;2023-05-22T08:40:21;101641.16;;;23.64;58.68
37852;BME280;23691;52.486;4.650;2023-05-22T08:42:46;101637.91;;;23.73;58.72
37852;BME280;23691;52.486;4.650;2023-05-22T08:45:12;101637.34;;;23.83;58.45
37852;BME280;23691;52.486;4.650;2023-05-22T08:47:41;101635.94;;;23.92;58.24
37852;BME280;23691;52.486;4.650;2023-05-22T08:50:09;101632.38;;;24.04;57.69
37852;BME280;23691;52.486;4.650;2023-05-22T08:52:50;101639.09;;;24.19;57.63
37852;BME280;23691;52.486;4.650;2023-05-22T08:55:16;101627.06;;;24.32;57.50
37852;BME280;23691;52.486;4.650;2023-05-22T08:57:43;101630.75;;;24.38;57.31
37852;BME280;23691;52.486;4.650;2023-05-22T09:00:27;101630.66;;;24.45;57.17
37852;BME280;23691;52.486;4.650;2023-05-22T09:02:53;101626.03;;;24.57;56.88
37852;BME280;23691;52.486;4.650;2023-05-22T09:05:20;101635.78;;;24.64;56.77
37852;BME280;23691;52.486;4.650;2023-05-22T09:07:51;101625.88;;;24.63;56.23
37852;BME280;23691;52.486;4.650;2023-05-22T09:10:18;101632.22;;;24.64;56.06
37852;BME280;23691;52.486;4.650;2023-05-22T09:13:02;101627.56;;;24.64;56.07
37852;BME280;23691;52.486;4.650;2023-05-22T09:15:31;101626.84;;;24.69;55.79
37852;BME280;23691;52.486;4.650;2023-05-22T09:17:57;101628.28;;;24.83;55.65
37852;BME280;23691;52.486;4.650;2023-05-22T09:20:23;101629.06;;;24.96;55.76
37852;BME280;23691;52.486;4.650;2023-05-22T09:22:48;101624.63;;;25.06;55.27
37852;BME280;23691;52.486;4.650;2023-05-22T09:25:17;101624.72;;;25.12;55.05
37852;BME280;23691;52.486;4.650;2023-05-22T09:27:44;101623.31;;;25.21;55.13
37852;BME280;23691;52.486;4.650;2023-05-22T09:30:11;101634.78;;;25.35;54.88
37852;BME280;23691;52.486;4.650;2023-05-22T09:32:37;101623.94;;;25.40;54.63
37852;BME280;23691;52.486;4.650;2023-05-22T09:35:02;101631.78;;;25.48;54.52
37852;BME280;23691;52.486;4.650;2023-05-22T09:37:32;101631.72;;;25.60;54.17
37852;BME280;23691;52.486;4.650;2023-05-22T09:39:58;101626.34;;;25.65;54.25
37852;BME280;23691;52.486;4.650;2023-05-22T09:42:28;101618.69;;;25.67;54.20
37852;BME280;23691;52.486;4.650;2023-05-22T09:44:53;101619.44;;;25.79;53.94
37852;BME280;23691;52.486;4.650;2023-05-22T09:47:18;101610.13;;;25.92;54.01
37852;BME280;23691;52.486;4.650;2023-05-22T09:49:44;101617.84;;;25.95;53.35
37852;BME280;23691;52.486;4.650;2023-05-22T09:52:10;101610.22;;;25.97;53.62
37852;BME280;23691;52.486;4.650;2023-05-22T09:55:06;101618.25;;;25.87;53.39
37852;BME280;23691;52.486;4.650;2023-05-22T09:57:40;101627.13;;;25.77;53.39
37852;BME280;23691;52.486;4.650;2023-05-22T10:00:07;101615.28;;;25.77;53.46
37852;BME280;23691;52.486;4.650;2023-05-22T10:02:36;101609.66;;;25.83;53.09
37852;BME280;23691;52.486;4.650;2023-05-22T10:05:05;101611.69;;;26.05;52.98
37852;BME280;23691;52.486;4.650;2023-05-22T10:07:36;101619.94;;;26.05;52.85
37852;BME280;23691;52.486;4.650;2023-05-22T10:10:07;101621.16;;;25.97;52.72
37852;BME280;23691;52.486;4.650;2023-05-22T10:12:38;101614.34;;;26.00;52.63
37852;BME280;23691;52.486;4.650;2023-05-22T10:15:06;101609.94;;;25.99;52.42
37852;BME280;23691;52.486;4.650;2023-05-22T10:17:33;101603.19;;;26.06;52.16
37852;BME280;23691;52.486;4.650;2023-05-22T10:20:00;101607.47;;;26.14;52.27
37852;BME280;23691;52.486;4.650;2023-05-22T10:22:27;101604.22;;;26.17;52.22
37852;BME280;23691;52.486;4.650;2023-05-22T10:24:53;101611.09;;;26.20;51.74
37852;BME280;23691;52.486;4.650;2023-05-22T10:27:19;101602.97;;;26.25;51.92
37852;BME280;23691;52.486;4.650;2023-05-22T10:30:00;101599.38;;;26.24;51.72
37852;BME280;23691;52.486;4.650;2023-05-22T10:35:31;101600.25;;;26.47;51.32
37852;BME280;23691;52.486;4.650;2023-05-22T10:41:04;101600.13;;;26.53;50.95
37852;BME280;23691;52.486;4.650;2023-05-22T10:43:31;101604.41;;;26.49;50.58
37852;BME280;23691;52.486;4.650;2023-05-22T10:46:03;101604.41;;;26.49;50.58
37852;BME280;23691;52.486;4.650;2023-05-22T10:48:36;101601.78;;;26.54;50.51
37852;BME280;23691;52.486;4.650;2023-05-22T10:51:02;101594.19;;;26.62;50.29
37852;BME280;23691;52.486;4.650;2023-05-22T10:53:30;101583.69;;;26.75;50.05
37852;BME280;23691;52.486;4.650;2023-05-22T10:55:58;101586.84;;;26.89;49.46
37852;BME280;23691;52.486;4.650;2023-05-22T10:58:33;101597.19;;;27.04;49.49
37852;BME280;23691;52.486;4.650;2023-05-22T11:01:11;101587.09;;;27.10;49.28
37852;BME280;23691;52.486;4.650;2023-05-22T11:03:57;101582.53;;;26.93;49.46
37852;BME280;23691;52.486;4.650;2023-05-22T11:06:39;101596.13;;;26.83;49.67
37852;BME280;23691;52.486;4.650;2023-05-22T11:11:46;101591.00;;;26.70;49.65
37852;BME280;23691;52.486;4.650;2023-05-22T11:14:15;101590.28;;;26.58;49.57
37852;BME280;23691;52.486;4.650;2023-05-22T11:16:41;101583.81;;;26.47;49.65
37852;BME280;23691;52.486;4.650;2023-05-22T11:19:08;101588.69;;;26.62;49.71
37852;BME280;23691;52.486;4.650;2023-05-22T11:21:40;101590.00;;;26.76;49.39
37852;BME280;23691;52.486;4.650;2023-05-22T11:24:06;101597.53;;;26.86;49.00
37852;BME280;23691;52.486;4.650;2023-05-22T11:26:32;101594.97;;;27.01;48.51
37852;BME280;23691;52.486;4.650;2023-05-22T11:28:58;101598.16;;;27.15;48.54
37852;BME280;23691;52.486;4.650;2023-05-22T11:31:24;101604.34;;;27.05;48.57
37852;BME280;23691;52.486;4.650;2023-05-22T11:33:52;101601.78;;;26.76;48.89
37852;BME280;23691;52.486;4.650;2023-05-22T11:36:17;101600.16;;;26.75;49.01
37852;BME280;23691;52.486;4.650;2023-05-22T11:38:43;101592.09;;;26.69;48.82
37852;BME280;23691;52.486;4.650;2023-05-22T11:41:09;101587.88;;;26.61;49.15
37852;BME280;23691;52.486;4.650;2023-05-22T11:43:36;101602.78;;;26.70;48.96
37852;BME280;23691;52.486;4.650;2023-05-22T11:46:08;101602.56;;;26.72;49.07
37852;BME280;23691;52.486;4.650;2023-05-22T11:48:34;101599.75;;;26.67;49.00
37852;BME280;23691;52.486;4.650;2023-05-22T11:51:01;101608.56;;;26.69;48.88
37852;BME280;23691;52.486;4.650;2023-05-22T11:53:29;101607.09;;;26.61;48.93
37852;BME280;23691;52.486;4.650;2023-05-22T11:56:00;101606.16;;;26.55;48.87
37852;BME280;23691;52.486;4.650;2023-05-22T11:58:26;101600.19;;;26.59;48.66
37852;BME280;23691;52.486;4.650;2023-05-22T12:00:56;101602.34;;;26.57;48.80
37852;BME280;23691;52.486;4.650;2023-05-22T12:03:22;101604.41;;;26.66;48.51
37852;BME280;23691;52.486;4.650;2023-05-22T12:05:49;101610.47;;;26.68;48.60
37852;BME280;23691;52.486;4.650;2023-05-22T12:08:15;101615.16;;;26.51;48.53
37852;BME280;23691;52.486;4.650;2023-05-22T12:10:45;101616.38;;;26.43;48.84
37852;BME280;23691;52.486;4.650;2023-05-22T12:13:11;101618.88;;;26.45;48.48
37852;BME280;23691;52.486;4.650;2023-05-22T12:15:37;101620.16;;;26.54;48.62
37852;BME280;23691;52.486;4.650;2023-05-22T12:18:02;101618.25;;;26.54;48.37
37852;BME280;23691;52.486;4.650;2023-05-22T12:20:28;101620.16;;;26.54;48.46
37852;BME280;23691;52.486;4.650;2023-05-22T12:22:55;101623.47;;;26.56;48.19
37852;BME280;23691;52.486;4.650;2023-05-22T12:25:20;101619.72;;;26.62;48.28
37852;BME280;23691;52.486;4.650;2023-05-22T12:27:50;101620.88;;;26.66;47.99
37852;BME280;23691;52.486;4.650;2023-05-22T12:30:15;101626.91;;;26.85;47.94
37852;BME280;23691;52.486;4.650;2023-05-22T12:32:46;101623.13;;;26.91;47.71
37852;BME280;23691;52.486;4.650;2023-05-22T12:35:16;101619.22;;;27.09;47.81
37852;BME280;23691;52.486;4.650;2023-05-22T12:37:47;101622.28;;;27.13;47.07
37852;BME280;23691;52.486;4.650;2023-05-22T12:40:13;101615.13;;;27.12;47.27
37852;BME280;23691;52.486;4.650;2023-05-22T12:42:38;101625.00;;;27.30;46.86
37852;BME280;23691;52.486;4.650;2023-05-22T12:45:05;101622.06;;;27.41;46.90
37852;BME280;23691;52.486;4.650;2023-05-22T12:47:31;101628.28;;;27.32;46.79
37852;BME280;23691;52.486;4.650;2023-05-22T12:49:56;101617.53;;;27.25;46.63
37852;BME280;23691;52.486;4.650;2023-05-22T12:52:22;101626.13;;;27.34;46.61
37852;BME280;23691;52.486;4.650;2023-05-22T12:54:48;101624.53;;;27.38;46.66
37852;BME280;23691;52.486;4.650;2023-05-22T12:57:13;101620.34;;;27.57;46.46
37852;BME280;23691;52.486;4.650;2023-05-22T12:59:40;101619.97;;;27.81;46.18
37852;BME280;23691;52.486;4.650;2023-05-22T13:02:06;101619.97;;;28.08;45.55
37852;BME280;23691;52.486;4.650;2023-05-22T13:04:31;101620.84;;;28.14;45.64
37852;BME280;23691;52.486;4.650;2023-05-22T13:06:57;101626.03;;;28.10;45.69